WICT2: Wichita River At Wichita Falls, TX

                                SHEF ID:       WICT2     Wichita Rv at Wichita Falls, TX
STATION TYPE:
Regulating: Stage = 18.50, Flow = 5482

PRECIP STAGE RIV-FLOW WTR-TEMP CONDUCT BAT-LOAD
in ft cfs F umho/cm volt
Ccp-Rev Ccp-Rev Ccp-Rev Ccp-Rev Ccp-Rev Ccp-Rev
(America/Chicago)
04/14 00:00 ---- 3.50 215 74.71 549 12.10
04/14 01:00 ---- 3.45 206 74.62 536 12.07
04/14 02:00 ---- 3.39 196 74.48 528 12.06
04/14 03:00 ---- 3.34 187 74.41 507 12.04
04/14 04:00 ---- 3.30 181 74.43 489 11.98
04/14 05:00 ---- 3.26 174 74.41 484 12.01
04/14 06:00 ---- 3.22 168 74.39 481 11.99
04/14 07:00 ---- 3.19 164 74.32 475 11.98
04/14 08:00 ---- 3.15 158 74.21 470 12.01
04/14 09:00 ---- 3.13 155 74.17 463 ----
04/14 10:00 ---- 3.08 147 74.25 460 12.37
04/14 11:00 ---- 3.04 142 74.39 459 12.57
04/14 12:00 ---- 3.01 137 74.55 462 12.54
04/14 13:00 ---- 2.98 133 74.75 471 12.53
04/14 14:00 ---- 2.92 125 75.07 480 12.62
04/14 15:00 ---- 2.89 121 75.34 493 12.51
04/14 16:00 ---- 2.85 116 75.79 515 12.42
04/14 17:00 ---- 2.83 114 76.15 543 12.42
04/14 18:00 ---- 2.80 110 76.28 559 12.27
04/14 19:00 ---- 2.77 105 76.05 571 12.16
04/14 20:00 ---- 2.75 103 75.79 582 12.13
04/14 21:00 ---- 2.72 99 75.58 597 12.11
04/14 22:00 ---- 2.70 96 75.25 598 12.08
04/14 23:00 ---- 2.68 94 74.95 600 12.08
Data processed at Wed 15Apr2026 04:58 GMT

NOTICE: If you are parsing this page

Please convert to using our Data API. Starting early 2026 we will be migrating to: https://water.usace.army.mil with modern pages rendered in JavaScript. When this migration completes you will no longer be able to scrape this page! CWMSDataAPI (CDA)

Timeseries IDs (TSIDs)

TSIDs used from left to right in the data table
WFAL.Precip-Inc.Total.1Hour.1Hour.Ccp-Rev
WFAL.Stage.Inst.1Hour.0.Ccp-Rev
WFAL.Flow.Inst.1Hour.0.Ccp-Rev
WFAL.Temp-Water.Inst.1Hour.0.Ccp-Rev
WFAL.Cond-Water.Inst.1Hour.0.Ccp-Rev
WFAL.Volt-Battery Load.Inst.1Hour.0.Ccp-Rev

                            

All information presented herein is the property of the government of the United States of America and may be revised or deleted at any time without prior notice. Dissemination of this information without the expressed written consent of the Public Affairs Office, Tulsa District U.S. Army Corps of Engineers is strictly prohibited. These data are gathered electronically and, as presented, have NOT undergone any form of quality control. These data are NOT guaranteed to be valid or correct.